createdAt,value
2023-04-18T00:03:21.092Z,8.00
2023-04-18T00:06:42.844Z,8.00
2023-04-18T00:10:05.106Z,7.90
2023-04-18T00:13:26.770Z,7.90
2023-04-18T00:16:48.719Z,7.90
2023-04-18T00:20:12.120Z,7.90
2023-04-18T00:23:33.859Z,7.90
2023-04-18T00:26:55.444Z,7.80
2023-04-18T00:30:16.985Z,7.80
2023-04-18T00:33:38.546Z,7.80
2023-04-18T00:37:01.436Z,7.80
2023-04-18T00:40:23.045Z,7.80
2023-04-18T00:43:46.734Z,7.70
2023-04-18T00:47:08.564Z,7.80
2023-04-18T00:50:30.376Z,7.80
2023-04-18T00:53:53.781Z,7.70
2023-04-18T00:57:15.711Z,7.70
2023-04-18T01:00:37.377Z,7.70
2023-04-18T01:03:59.110Z,7.70
2023-04-18T01:07:20.724Z,7.70
2023-04-18T01:10:43.641Z,7.70
2023-04-18T01:14:06.090Z,7.70
2023-04-18T01:17:27.669Z,7.70
2023-04-18T01:20:49.900Z,7.70
2023-04-18T01:24:14.029Z,7.70
2023-04-18T01:27:35.714Z,7.60
2023-04-18T01:30:57.301Z,7.60
2023-04-18T01:34:18.928Z,7.60
2023-04-18T01:37:40.461Z,7.60
2023-04-18T01:41:03.419Z,7.70
2023-04-18T01:44:26.119Z,7.70
2023-04-18T01:47:48.066Z,7.70
2023-04-18T01:51:09.677Z,7.70
2023-04-18T01:54:31.257Z,7.70
2023-04-18T01:57:54.132Z,7.70
2023-04-18T02:01:15.698Z,7.60
2023-04-18T02:04:37.304Z,7.60
2023-04-18T02:07:58.848Z,7.60
2023-04-18T02:11:20.379Z,7.60
2023-04-18T02:14:43.263Z,7.60
2023-04-18T02:18:04.884Z,7.60
2023-04-18T02:21:26.498Z,7.60
2023-04-18T02:24:48.032Z,7.50
2023-04-18T02:28:09.588Z,7.60
2023-04-18T02:31:32.576Z,7.50
2023-04-18T02:34:54.131Z,7.50
2023-04-18T02:38:15.700Z,7.50
2023-04-18T02:41:37.273Z,7.50
2023-04-18T02:44:58.815Z,7.50
2023-04-18T02:48:21.721Z,7.50
2023-04-18T02:51:43.290Z,7.40
2023-04-18T02:55:05.232Z,7.50
2023-04-18T02:58:27.078Z,7.40
2023-04-18T03:01:48.702Z,7.50
2023-04-18T03:05:11.817Z,7.50
2023-04-18T03:08:33.399Z,7.50
2023-04-18T03:11:54.937Z,7.40
2023-04-18T03:15:16.552Z,7.50
2023-04-18T03:18:38.148Z,7.40
2023-04-18T03:22:01.089Z,7.40
2023-04-18T03:25:22.671Z,7.40
2023-04-18T03:28:49.991Z,7.40
2023-04-18T03:32:11.582Z,7.40
2023-04-18T03:35:33.124Z,7.40
2023-04-18T03:38:56.039Z,7.40
2023-04-18T03:42:17.630Z,7.30
2023-04-18T03:45:39.559Z,7.30
2023-04-18T03:49:01.188Z,7.30
2023-04-18T03:52:22.764Z,7.30
2023-04-18T03:55:45.664Z,7.30
2023-04-18T03:59:07.428Z,7.30
2023-04-18T04:02:29.114Z,7.30
2023-04-18T04:05:50.757Z,7.30
2023-04-18T04:09:12.333Z,7.30
2023-04-18T04:12:35.253Z,7.30
2023-04-18T04:15:56.864Z,7.30
2023-04-18T04:19:18.434Z,7.30
2023-04-18T04:22:39.974Z,7.30
2023-04-18T04:26:01.512Z,7.40
2023-04-18T04:29:24.470Z,7.40
2023-04-18T04:32:46.048Z,7.30
2023-04-18T04:36:07.909Z,7.40
2023-04-18T04:39:29.462Z,7.30
2023-04-18T04:42:51.000Z,7.30
2023-04-18T04:46:14.009Z,7.30
2023-04-18T04:49:35.598Z,7.40
2023-04-18T04:52:57.169Z,7.30
2023-04-18T04:56:18.819Z,7.30
2023-04-18T04:59:40.382Z,7.30
2023-04-18T05:03:03.489Z,7.30
2023-04-18T05:06:25.249Z,7.40
2023-04-18T05:09:47.061Z,7.40
2023-04-18T05:13:08.632Z,7.40
2023-04-18T05:16:30.213Z,7.40
2023-04-18T05:19:53.193Z,7.40
2023-04-18T05:23:14.901Z,7.40
2023-04-18T05:26:36.891Z,7.40
2023-04-18T05:29:58.481Z,7.40
2023-04-18T05:33:20.040Z,7.40
2023-04-18T05:36:42.967Z,7.40
2023-04-18T05:40:04.831Z,7.50
2023-04-18T05:43:26.397Z,7.50
2023-04-18T05:46:48.134Z,7.50
2023-04-18T05:50:10.016Z,7.50
2023-04-18T05:53:32.920Z,7.50
2023-04-18T05:56:54.483Z,7.60
2023-04-18T06:00:16.579Z,7.70
2023-04-18T06:03:38.359Z,7.70
2023-04-18T06:07:00.040Z,7.80
2023-04-18T06:10:23.092Z,7.70
2023-04-18T06:13:44.642Z,7.70
2023-04-18T06:17:06.498Z,7.80
2023-04-18T06:20:28.073Z,7.80
2023-04-18T06:23:49.627Z,7.70
2023-04-18T06:27:24.138Z,7.70
2023-04-18T06:30:51.989Z,7.80
2023-04-18T06:34:13.878Z,7.90
2023-04-18T06:37:35.586Z,7.90
2023-04-18T06:40:57.116Z,7.90
2023-04-18T06:44:20.030Z,8.00
2023-04-18T06:47:41.652Z,8.10
2023-04-18T06:51:03.259Z,8.10
2023-04-18T06:54:24.814Z,8.20
2023-04-18T06:57:46.352Z,8.20
2023-04-18T07:01:09.337Z,8.10
2023-04-18T07:04:31.000Z,8.10
2023-04-18T07:07:52.615Z,8.20
2023-04-18T07:11:14.188Z,8.20
2023-04-18T07:14:35.811Z,8.20
2023-04-18T07:17:58.900Z,8.30
2023-04-18T07:21:20.487Z,8.30
2023-04-18T07:24:42.067Z,8.20
2023-04-18T07:28:03.662Z,8.20
2023-04-18T07:31:25.222Z,8.30
2023-04-18T07:34:48.122Z,8.20
2023-04-18T07:38:09.677Z,8.30
2023-04-18T07:41:31.256Z,8.20
2023-04-18T07:44:56.364Z,8.30
2023-04-18T07:48:17.971Z,8.30
2023-04-18T07:51:40.912Z,8.30
2023-04-18T07:55:02.463Z,8.40
2023-04-18T07:58:24.014Z,8.40
2023-04-18T08:01:45.558Z,8.40
2023-04-18T08:05:08.056Z,8.50
2023-04-18T08:08:31.089Z,8.50
2023-04-18T08:11:52.698Z,8.60
2023-04-18T08:15:14.372Z,8.60
2023-04-18T08:18:36.049Z,8.70
2023-04-18T08:22:06.483Z,8.70
2023-04-18T08:25:29.596Z,8.90
2023-04-18T08:28:51.180Z,9.10
2023-04-18T08:32:14.162Z,9.40
2023-04-18T08:35:35.725Z,9.60
2023-04-18T08:38:57.272Z,9.70
2023-04-18T08:42:21.549Z,9.80
2023-04-18T08:45:43.516Z,10.00
2023-04-18T08:49:05.806Z,10.10
2023-04-18T08:52:28.227Z,10.20
2023-04-18T08:55:52.730Z,10.30
2023-04-18T08:59:15.903Z,10.40
2023-04-18T09:02:38.790Z,10.30
2023-04-18T09:06:07.058Z,10.20
2023-04-18T09:09:39.463Z,10.10
2023-04-18T09:13:01.810Z,10.10
2023-04-18T09:16:25.099Z,10.10
2023-04-18T09:19:47.360Z,10.00
2023-04-18T09:23:09.434Z,10.00
2023-04-18T09:26:33.041Z,10.10
2023-04-18T09:29:57.789Z,10.20
2023-04-18T09:33:26.152Z,10.30
2023-04-18T09:37:04.573Z,10.50
2023-04-18T09:40:26.329Z,10.80
2023-04-18T09:43:48.319Z,11.30
2023-04-18T09:47:09.955Z,11.50
2023-04-18T09:50:33.501Z,11.70
2023-04-18T09:53:55.203Z,11.90
2023-04-18T09:57:17.623Z,11.90
2023-04-18T10:00:39.753Z,12.10
2023-04-18T10:04:05.767Z,12.40
2023-04-18T10:07:28.817Z,12.30
2023-04-18T10:10:50.375Z,12.10
2023-04-18T10:14:13.349Z,12.10
2023-04-18T10:17:49.439Z,12.30
2023-04-18T10:21:18.017Z,12.30
2023-04-18T10:24:48.147Z,12.50
2023-04-18T10:28:09.957Z,12.70
2023-04-18T10:31:38.379Z,12.90
2023-04-18T10:35:00.426Z,13.30
2023-04-18T10:38:22.890Z,13.40
2023-04-18T10:41:51.532Z,13.40
2023-04-18T10:45:17.061Z,13.30
2023-04-18T10:48:38.800Z,13.40
2023-04-18T10:52:02.485Z,13.60
2023-04-18T10:55:26.083Z,13.60
2023-04-18T10:58:55.370Z,13.40
2023-04-18T11:02:23.446Z,13.20
2023-04-18T11:05:45.064Z,13.00
2023-04-18T11:09:10.168Z,12.80
2023-04-18T11:12:32.149Z,12.70
2023-04-18T11:15:55.081Z,12.80
2023-04-18T11:19:19.961Z,12.80
2023-04-18T11:22:45.856Z,12.70
2023-04-18T11:26:07.424Z,12.60
2023-04-18T11:29:28.998Z,12.70
2023-04-18T11:32:54.358Z,12.70
2023-04-18T11:36:16.120Z,12.80
2023-04-18T11:39:40.912Z,12.70
2023-04-18T11:43:03.233Z,12.60
2023-04-18T11:46:37.021Z,12.60
2023-04-18T11:50:01.140Z,12.50
2023-04-18T11:53:32.419Z,12.50
2023-04-18T11:56:53.954Z,12.50
2023-04-18T12:00:17.604Z,12.60
2023-04-18T12:03:39.325Z,12.80
2023-04-18T12:07:02.328Z,13.00
2023-04-18T12:10:25.108Z,13.20
2023-04-18T12:13:49.941Z,13.10
2023-04-18T12:17:12.589Z,13.10
2023-04-18T12:20:34.948Z,13.10
2023-04-18T12:23:59.231Z,13.10
2023-04-18T12:27:22.092Z,13.30
2023-04-18T12:30:43.665Z,13.60
2023-04-18T12:34:05.233Z,13.80
2023-04-18T12:37:26.857Z,14.00
2023-04-18T12:40:50.090Z,14.20
2023-04-18T12:44:11.753Z,14.00
2023-04-18T12:47:33.429Z,13.80
2023-04-18T12:50:55.047Z,13.60
2023-04-18T12:54:16.718Z,13.50
2023-04-18T12:57:39.701Z,13.40
2023-04-18T13:01:01.343Z,13.20
2023-04-18T13:04:23.189Z,13.00
2023-04-18T13:07:45.238Z,12.90
2023-04-18T13:11:06.802Z,12.90
2023-04-18T13:14:29.689Z,13.00
2023-04-18T13:17:51.460Z,13.00
2023-04-18T13:21:13.305Z,13.10
2023-04-18T13:24:34.864Z,13.20
2023-04-18T13:27:56.434Z,13.30
2023-04-18T13:31:19.387Z,13.60
2023-04-18T13:34:42.260Z,13.60
2023-04-18T13:38:03.807Z,13.50
2023-04-18T13:41:25.372Z,13.50
2023-04-18T13:44:47.002Z,13.60
2023-04-18T13:48:10.064Z,13.60
2023-04-18T13:51:31.623Z,13.70
2023-04-18T13:54:53.276Z,13.80
2023-04-18T13:58:15.003Z,13.90
2023-04-18T14:01:36.681Z,13.90
2023-04-18T14:05:00.028Z,13.90
2023-04-18T14:08:21.867Z,13.80
2023-04-18T14:11:43.449Z,13.80
2023-04-18T14:15:05.718Z,13.70
2023-04-18T14:18:27.281Z,13.60
2023-04-18T14:21:50.157Z,13.70
2023-04-18T14:25:11.743Z,13.80
2023-04-18T14:28:33.317Z,13.80
2023-04-18T14:31:58.668Z,13.70
2023-04-18T14:35:20.457Z,13.60
2023-04-18T14:38:46.515Z,13.40
2023-04-18T14:42:08.784Z,13.20
2023-04-18T14:45:31.926Z,13.10
2023-04-18T14:48:53.523Z,13.00
2023-04-18T14:52:15.188Z,13.00
2023-04-18T14:55:38.145Z,13.00
2023-04-18T14:58:59.698Z,13.10
2023-04-18T15:02:21.450Z,13.10
2023-04-18T15:05:43.215Z,13.20
2023-04-18T15:09:04.751Z,13.20
2023-04-18T15:12:27.621Z,13.30
2023-04-18T15:15:52.798Z,13.20
2023-04-18T15:19:14.505Z,13.10
2023-04-18T15:22:37.444Z,13.10
2023-04-18T15:25:59.031Z,13.10
2023-04-18T15:29:22.145Z,13.10
2023-04-18T15:32:43.719Z,13.10
2023-04-18T15:36:05.547Z,13.10
2023-04-18T15:39:27.122Z,13.00
2023-04-18T15:42:48.701Z,13.10
2023-04-18T15:46:11.698Z,13.10
2023-04-18T15:49:33.287Z,13.10
2023-04-18T15:52:55.036Z,13.10
2023-04-18T15:56:16.622Z,13.10
2023-04-18T15:59:38.198Z,13.00
2023-04-18T16:03:01.236Z,13.00
2023-04-18T16:06:22.909Z,13.10
2023-04-18T16:09:44.468Z,13.00
2023-04-18T16:13:06.040Z,13.00
2023-04-18T16:16:27.719Z,13.00
2023-04-18T16:19:50.728Z,13.10
2023-04-18T16:23:12.353Z,13.10
2023-04-18T16:26:33.916Z,13.10
2023-04-18T16:29:55.474Z,13.10
2023-04-18T16:33:17.093Z,12.90
2023-04-18T16:36:40.120Z,12.80
2023-04-18T16:40:01.677Z,12.70
2023-04-18T16:43:23.450Z,12.60
2023-04-18T16:46:45.325Z,12.50
2023-04-18T16:50:11.732Z,12.50
2023-04-18T16:53:35.138Z,12.40
2023-04-18T16:56:56.680Z,12.40
2023-04-18T17:00:18.467Z,12.40
2023-04-18T17:03:40.112Z,12.40
2023-04-18T17:07:01.768Z,12.30
2023-04-18T17:10:24.854Z,12.30
2023-04-18T17:13:46.506Z,12.30
2023-04-18T17:17:08.089Z,12.20
2023-04-18T17:20:29.683Z,12.10
2023-04-18T17:23:51.291Z,12.10
2023-04-18T17:27:14.241Z,12.00
2023-04-18T17:30:38.989Z,12.00
2023-04-18T17:34:00.590Z,12.00
2023-04-18T17:37:22.166Z,11.90
2023-04-18T17:40:43.771Z,11.90
2023-04-18T17:44:06.955Z,11.90
2023-04-18T17:47:28.555Z,11.80
2023-04-18T17:50:50.133Z,11.80
2023-04-18T17:54:11.712Z,11.80
2023-04-18T17:57:33.281Z,11.80
2023-04-18T18:00:57.099Z,11.70
2023-04-18T18:04:18.951Z,11.70
2023-04-18T18:07:40.730Z,11.60
2023-04-18T18:11:02.789Z,11.60
2023-04-18T18:14:24.477Z,11.60
2023-04-18T18:17:48.790Z,11.50
2023-04-18T18:21:10.388Z,11.50
2023-04-18T18:24:32.017Z,11.50
2023-04-18T18:27:54.694Z,11.50
2023-04-18T18:31:16.667Z,11.50
2023-04-18T18:34:39.553Z,11.40
2023-04-18T18:38:03.069Z,11.40
2023-04-18T18:41:25.009Z,11.40
2023-04-18T18:44:46.618Z,11.40
2023-04-18T18:48:08.212Z,11.40
2023-04-18T18:51:31.185Z,11.40
2023-04-18T18:54:52.786Z,11.30
2023-04-18T18:58:14.349Z,11.40
2023-04-18T19:01:35.984Z,11.30
2023-04-18T19:04:57.572Z,11.30
2023-04-18T19:08:20.808Z,11.20
2023-04-18T19:11:42.438Z,11.20
2023-04-18T19:15:04.372Z,11.20
2023-04-18T19:18:26.080Z,11.20
2023-04-18T19:21:47.773Z,11.20
2023-04-18T19:25:13.665Z,11.30
2023-04-18T19:28:37.659Z,11.30
2023-04-18T19:32:01.542Z,11.30
2023-04-18T19:35:23.631Z,11.30
2023-04-18T19:38:45.544Z,11.30
2023-04-18T19:42:08.464Z,11.20
2023-04-18T19:45:30.247Z,11.20
2023-04-18T19:48:51.805Z,11.20
2023-04-18T19:52:13.404Z,11.10
2023-04-18T19:55:34.975Z,11.10
2023-04-18T19:59:00.982Z,11.00
2023-04-18T20:02:23.524Z,11.00
2023-04-18T20:05:45.278Z,11.00
2023-04-18T20:09:06.913Z,10.90
2023-04-18T20:12:28.514Z,10.90
2023-04-18T20:15:51.471Z,10.90
2023-04-18T20:19:14.071Z,10.80
2023-04-18T20:22:35.933Z,10.80
2023-04-18T20:25:57.545Z,10.70
2023-04-18T20:29:19.102Z,10.80
2023-04-18T20:32:42.054Z,10.70
2023-04-18T20:36:03.934Z,10.70
2023-04-18T20:39:25.466Z,10.70
2023-04-18T20:42:47.004Z,10.70
2023-04-18T20:46:08.782Z,10.70
2023-04-18T20:49:31.697Z,10.60
2023-04-18T20:52:53.274Z,10.60
2023-04-18T20:56:14.830Z,10.60
2023-04-18T20:59:36.376Z,10.60
2023-04-18T21:02:58.004Z,10.50
2023-04-18T21:06:22.808Z,10.50
2023-04-18T21:09:44.673Z,10.40
2023-04-18T21:13:06.439Z,10.40
2023-04-18T21:16:28.008Z,10.40
2023-04-18T21:19:49.548Z,10.40
2023-04-18T21:23:12.449Z,10.40
2023-04-18T21:26:34.019Z,10.40
2023-04-18T21:29:55.608Z,10.30
2023-04-18T21:33:17.181Z,10.30
2023-04-18T21:36:38.873Z,10.20
2023-04-18T21:40:01.819Z,10.20
2023-04-18T21:43:23.451Z,10.20
2023-04-18T21:46:45.015Z,10.20
2023-04-18T21:50:07.324Z,10.20
2023-04-18T21:53:28.983Z,10.20
2023-04-18T21:56:51.888Z,10.20
2023-04-18T22:00:13.909Z,10.10
2023-04-18T22:03:37.596Z,10.10
2023-04-18T22:06:59.298Z,10.10
2023-04-18T22:10:20.914Z,10.10
2023-04-18T22:13:44.138Z,10.10
2023-04-18T22:17:05.869Z,10.00
2023-04-18T22:20:27.439Z,10.00
2023-04-18T22:23:49.040Z,10.00
2023-04-18T22:27:10.609Z,10.00
2023-04-18T22:30:33.675Z,9.90
2023-04-18T22:33:55.537Z,9.90
2023-04-18T22:37:17.148Z,9.90
2023-04-18T22:40:38.742Z,9.90
2023-04-18T22:44:00.326Z,9.90
2023-04-18T22:47:23.317Z,9.90
2023-04-18T22:50:44.920Z,9.80
2023-04-18T22:54:06.524Z,9.90
2023-04-18T22:57:28.147Z,9.80
2023-04-18T23:00:49.950Z,9.80
2023-04-18T23:04:13.072Z,9.80
2023-04-18T23:07:34.846Z,9.80
2023-04-18T23:10:56.438Z,9.80
2023-04-18T23:14:18.023Z,9.80
2023-04-18T23:17:39.655Z,9.70
2023-04-18T23:21:02.628Z,9.70
2023-04-18T23:24:24.262Z,9.70
2023-04-18T23:27:45.856Z,9.70
2023-04-18T23:31:08.386Z,9.70
2023-04-18T23:34:30.627Z,9.70
2023-04-18T23:37:54.161Z,9.60
2023-04-18T23:41:15.741Z,9.60
2023-04-18T23:44:37.321Z,9.60
2023-04-18T23:47:58.989Z,9.60
2023-04-18T23:51:20.581Z,9.60
2023-04-18T23:54:43.517Z,9.60
2023-04-18T23:58:05.139Z,9.60
